Time;durP1;ratioP1;P1;durP2;ratioP2;P2;SDS_P1;SDS_P2;PMS_P1;PMS_P2;Temp;Humidity;BMP_temperature;BMP_pressure;BME280_temperature;BME280_humidity;BME280_pressure;Samples;Min_cycle;Max_cycle;Signal;HPM_P1;HPM_P2
2021/07/01 00:01:21;;;;;;;1999.90;999.90;;;16.30;99.90;;;;;;4978390;28;20418;-87
2021/07/01 00:04:37;;;;;;;1999.90;999.90;;;16.30;99.90;;;;;;5003868;28;20421;-86
2021/07/01 00:07:11;;;;;;;1999.90;999.90;;;16.30;99.90;;;;;;5042649;28;20431;-86
2021/07/01 00:10:30;;;;;;;1999.90;999.90;;;16.20;99.90;;;;;;5040797;28;20428;-85
2021/07/01 00:13:31;;;;;;;;;;;;;;;;;;;;;
2021/07/01 00:15:59;;;;;;;1999.90;999.90;;;16.20;99.90;;;;;;4978340;28;20451;-86
2021/07/01 00:19:26;;;;;;;1999.90;999.90;;;16.30;99.90;;;;;;4978218;28;20422;-85
2021/07/01 00:22:25;;;;;;;1999.90;999.90;;;16.30;99.90;;;;;;4966998;28;20424;-85
2021/07/01 00:25:19;;;;;;;;;;;;;;;;;;;;;
2021/07/01 00:28:28;;;;;;;1999.90;999.90;;;16.30;99.90;;;;;;5059425;28;20515;-85
2021/07/01 00:31:45;;;;;;;1999.90;999.90;;;16.20;99.90;;;;;;5034668;28;20523;-86
2021/07/01 00:34:39;;;;;;;;;;;;;;;;;;;;;
2021/07/01 00:37:41;;;;;;;1999.90;999.90;;;16.20;99.90;;;;;;5058648;28;20489;-86
2021/07/01 00:40:35;;;;;;;1999.90;999.90;;;16.20;99.90;;;;;;4988557;28;20460;-86
2021/07/01 00:43:12;;;;;;;;;;;;;;;;;;;;;
2021/07/01 00:46:06;;;;;;;1999.90;999.90;;;16.20;99.90;;;;;;5058095;28;20459;-84
2021/07/01 00:48:51;;;;;;;1999.90;999.90;;;16.20;99.90;;;;;;5054282;28;20936;-85
2021/07/01 00:51:44;;;;;;;1999.90;999.90;;;16.10;99.90;;;;;;5040546;28;20422;-86
2021/07/01 00:54:27;;;;;;;1999.90;999.90;;;16.10;99.90;;;;;;5040874;28;20501;-86
2021/07/01 00:56:55;;;;;;;1999.90;999.90;;;16.10;99.90;;;;;;5057879;28;20394;-85
2021/07/01 00:59:27;;;;;;;1999.90;999.90;;;16.10;99.90;;;;;;5056050;28;20501;-85
2021/07/01 01:02:27;;;;;;;1999.90;999.90;;;16.10;99.90;;;;;;5040098;28;20413;-86
2021/07/01 01:05:05;;;;;;;1999.90;999.90;;;16.20;99.90;;;;;;5058149;28;20405;-86
2021/07/01 01:07:42;;;;;;;1999.90;999.90;;;16.20;99.90;;;;;;5039788;28;20431;-86
2021/07/01 01:10:14;;;;;;;1999.90;999.90;;;16.10;99.90;;;;;;5041353;28;20429;-86
2021/07/01 01:12:40;;;;;;;1999.90;999.90;;;16.00;99.90;;;;;;5040978;28;20474;-86
2021/07/01 01:15:15;;;;;;;1999.90;999.90;;;16.00;99.90;;;;;;5041132;28;21010;-86
2021/07/01 01:17:47;;;;;;;1999.90;999.90;;;15.90;99.90;;;;;;5040972;28;20170;-86
2021/07/01 01:20:20;;;;;;;1999.90;999.90;;;16.00;99.90;;;;;;5059712;28;20443;-86
2021/07/01 01:22:54;;;;;;;1999.90;999.90;;;15.80;99.90;;;;;;5059744;28;20391;-85
2021/07/01 01:25:22;;;;;;;1999.90;999.90;;;15.80;99.90;;;;;;5043548;28;20421;-86
2021/07/01 01:27:51;;;;;;;1999.90;999.90;;;15.80;99.90;;;;;;5042488;28;20792;-86
2021/07/01 01:30:41;;;;;;;1999.90;999.90;;;15.80;99.90;;;;;;5059246;28;20439;-85
2021/07/01 01:33:25;;;;;;;1999.90;999.90;;;15.70;99.90;;;;;;5059729;28;20401;-86
2021/07/01 01:39:29;;;;;;;1999.90;999.90;;;15.80;99.90;;;;;;4970592;28;20405;-85
2021/07/01 01:42:31;;;;;;;1999.90;999.90;;;15.80;99.90;;;;;;5005935;28;20436;-86
2021/07/01 01:45:02;;;;;;;1999.90;999.90;;;15.70;99.90;;;;;;5036399;28;20421;-85
2021/07/01 01:47:33;;;;;;;1999.90;999.90;;;15.80;99.90;;;;;;5056230;28;20408;-85
2021/07/01 01:50:26;;;;;;;1999.90;999.90;;;15.80;99.90;;;;;;5063703;22;20486;-86
2021/07/01 01:53:02;;;;;;;1999.90;999.90;;;15.70;99.90;;;;;;5077465;28;20508;-85
2021/07/01 01:55:34;;;;;;;1999.90;999.90;;;15.70;99.90;;;;;;5077273;28;20450;-86
2021/07/01 01:58:03;;;;;;;1999.90;999.90;;;15.70;99.90;;;;;;5059864;28;20509;-86
2021/07/01 02:01:12;;;;;;;1999.90;999.90;;;15.60;99.90;;;;;;5076549;28;20441;-86
2021/07/01 02:03:44;;;;;;;1999.90;999.90;;;15.60;99.90;;;;;;5076178;28;20407;-86
2021/07/01 02:06:50;;;;;;;1999.90;999.90;;;15.60;99.90;;;;;;5077313;28;20400;-86
2021/07/01 02:09:25;;;;;;;1999.90;999.90;;;15.60;99.90;;;;;;5043213;28;20420;-85
2021/07/01 02:12:00;;;;;;;1999.90;999.90;;;15.70;99.90;;;;;;5075262;28;20380;-86
2021/07/01 02:14:41;;;;;;;1999.90;999.90;;;15.60;99.90;;;;;;5055505;28;20438;-86
2021/07/01 02:17:07;;;;;;;1999.90;999.90;;;15.60;99.90;;;;;;5071197;22;20481;-85
2021/07/01 02:19:32;;;;;;;1999.90;999.90;;;15.60;99.90;;;;;;5073848;28;20958;-85
2021/07/01 02:21:58;;;;;;;1999.90;999.90;;;15.60;99.90;;;;;;5074767;28;20159;-85
2021/07/01 02:24:24;;;;;;;1999.90;999.90;;;15.60;99.90;;;;;;5074712;28;20167;-85
2021/07/01 02:26:50;;;;;;;1999.90;999.90;;;15.60;99.90;;;;;;5073931;28;21020;-85
2021/07/01 02:29:16;;;;;;;1999.90;999.90;;;15.60;99.90;;;;;;5074233;28;20915;-85
2021/07/01 02:31:41;;;;;;;1999.90;999.90;;;15.60;99.90;;;;;;5074236;28;20402;-85
2021/07/01 02:34:07;;;;;;;1999.90;999.90;;;15.60;99.90;;;;;;5075865;28;20177;-85
2021/07/01 02:36:33;;;;;;;1999.90;999.90;;;15.60;99.90;;;;;;5077725;28;20205;-85
2021/07/01 02:38:58;;;;;;;1999.90;999.90;;;15.70;99.90;;;;;;5078043;28;20178;-85
2021/07/01 02:41:24;;;;;;;1999.90;999.90;;;15.70;99.90;;;;;;5077619;28;20666;-85
2021/07/01 02:43:50;;;;;;;1999.90;999.90;;;15.70;99.90;;;;;;5077691;28;20168;-85
2021/07/01 02:46:16;;;;;;;1999.90;999.90;;;15.60;99.90;;;;;;5077723;28;20532;-85
2021/07/01 02:48:41;;;;;;;1999.90;999.90;;;15.60;99.90;;;;;;5077022;28;20199;-85
2021/07/01 02:51:07;;;;;;;1999.90;999.90;;;15.60;99.90;;;;;;5059261;28;20434;-85
2021/07/01 02:53:33;;;;;;;1999.90;999.90;;;15.60;99.90;;;;;;5077374;28;20636;-85
2021/07/01 02:55:59;;;;;;;1999.90;999.90;;;15.60;99.90;;;;;;5077393;28;20192;-85
2021/07/01 02:58:24;;;;;;;1999.90;999.90;;;15.60;99.90;;;;;;5077556;28;20171;-85
2021/07/01 03:00:50;;;;;;;1999.90;999.90;;;15.60;99.90;;;;;;5075722;28;20711;-85
2021/07/01 03:03:15;;;;;;;1999.90;999.90;;;15.60;99.90;;;;;;5077371;28;20683;-85
2021/07/01 03:05:41;;;;;;;1999.90;999.90;;;15.50;99.90;;;;;;5059407;28;20172;-85
2021/07/01 03:08:10;;;;;;;1999.90;999.90;;;15.50;99.90;;;;;;5076689;28;20175;-85
2021/07/01 03:10:35;;;;;;;1999.90;999.90;;;15.50;99.90;;;;;;5058946;28;20685;-85
2021/07/01 03:13:01;;;;;;;1999.90;999.90;;;15.60;99.90;;;;;;5058791;28;20412;-85
2021/07/01 03:15:26;;;;;;;1999.90;999.90;;;15.60;99.90;;;;;;5076554;28;20207;-86
2021/07/01 03:17:52;;;;;;;1999.90;999.90;;;15.70;99.90;;;;;;5076524;28;20224;-85
2021/07/01 03:20:18;;;;;;;1999.90;999.90;;;15.70;99.90;;;;;;5076094;28;20222;-85
2021/07/01 03:22:43;;;;;;;1999.90;999.90;;;15.70;99.90;;;;;;5076452;28;20510;-85
2021/07/01 03:25:10;;;;;;;1999.90;999.90;;;15.70;99.90;;;;;;5076366;28;20696;-85
2021/07/01 03:27:35;;;;;;;1999.90;999.90;;;15.60;99.90;;;;;;5076265;28;20158;-85
2021/07/01 03:30:01;;;;;;;1999.90;999.90;;;15.70;99.90;;;;;;5076349;28;20800;-85
2021/07/01 03:32:27;;;;;;;1999.90;999.90;;;15.60;99.90;;;;;;5058607;28;20169;-85
2021/07/01 03:34:53;;;;;;;1999.90;999.90;;;15.60;99.90;;;;;;5076037;28;20569;-85
2021/07/01 03:37:18;;;;;;;1999.90;999.90;;;15.60;99.90;;;;;;5076344;28;20215;-85
2021/07/01 03:39:44;;;;;;;1999.90;999.90;;;15.60;99.90;;;;;;5057828;28;20199;-85
2021/07/01 03:42:11;;;;;;;1999.90;999.90;;;15.70;99.90;;;;;;5075907;28;20169;-85
2021/07/01 03:44:37;;;;;;;1999.90;999.90;;;15.70;99.90;;;;;;5075469;28;20612;-85
2021/07/01 03:47:03;;;;;;;1999.90;999.90;;;15.70;99.90;;;;;;5075553;28;20767;-85
2021/07/01 03:49:29;;;;;;;1999.90;999.90;;;15.70;99.90;;;;;;5076082;28;20490;-85
2021/07/01 03:51:55;;;;;;;1999.90;999.90;;;15.70;99.90;;;;;;5075967;28;20894;-85
2021/07/01 03:54:20;;;;;;;1999.90;999.90;;;15.70;99.90;;;;;;5076068;28;20531;-85
2021/07/01 03:56:46;;;;;;;1999.90;999.90;;;15.60;99.90;;;;;;5076214;28;20203;-85
2021/07/01 03:59:13;;;;;;;1999.90;999.90;;;15.60;99.90;;;;;;5057631;28;20699;-85
2021/07/01 04:01:39;;;;;;;1999.90;999.90;;;15.60;99.90;;;;;;5041155;28;20169;-85
2021/07/01 04:04:06;;;;;;;1999.90;999.90;;;15.50;99.90;;;;;;5075339;28;20465;-85
2021/07/01 04:06:32;;;;;;;1999.90;999.90;;;15.50;99.90;;;;;;5075960;28;20422;-85
2021/07/01 04:08:58;;;;;;;1999.90;999.90;;;15.50;99.90;;;;;;5075256;28;20431;-85
2021/07/01 04:11:24;;;;;;;1999.90;999.90;;;15.40;99.90;;;;;;5075501;28;20400;-85
2021/07/01 04:13:50;;;;;;;1999.90;999.90;;;15.40;99.90;;;;;;5075489;28;20410;-85
2021/07/01 04:16:15;;;;;;;1999.90;999.90;;;15.50;99.90;;;;;;5075902;28;20457;-85
2021/07/01 04:18:41;;;;;;;1999.90;999.90;;;15.40;99.90;;;;;;5077008;28;20168;-85
2021/07/01 04:21:07;;;;;;;1999.90;999.90;;;15.40;99.90;;;;;;5074999;28;20532;-85
2021/07/01 04:23:33;;;;;;;1999.90;999.90;;;15.40;99.90;;;;;;5075019;28;20161;-85
2021/07/01 04:25:58;;;;;;;1999.90;999.90;;;15.50;99.90;;;;;;5075074;28;20766;-85
2021/07/01 04:28:24;;;;;;;1999.90;999.90;;;15.50;99.90;;;;;;5074802;28;20221;-85
2021/07/01 04:30:50;;;;;;;1999.90;999.90;;;15.50;99.90;;;;;;5074714;28;20233;-85
2021/07/01 04:33:16;;;;;;;1999.90;999.90;;;15.50;99.90;;;;;;5074728;28;20669;-85
2021/07/01 04:35:48;;;;;;;1999.90;999.90;;;15.40;99.90;;;;;;5074477;28;20193;-85
2021/07/01 04:38:14;;;;;;;1999.90;999.90;;;15.40;99.90;;;;;;5041280;28;20168;-85
2021/07/01 04:40:40;;;;;;;1999.90;999.90;;;15.40;99.90;;;;;;5078947;28;20422;-84
2021/07/01 04:43:06;;;;;;;1999.90;999.90;;;15.50;99.90;;;;;;5081662;28;20444;-84
2021/07/01 04:45:31;;;;;;;1999.90;999.90;;;15.50;99.90;;;;;;5081846;28;20169;-85
2021/07/01 04:47:58;;;;;;;1999.90;999.90;;;15.50;99.90;;;;;;5063754;28;20175;-85
2021/07/01 04:50:24;;;;;;;1999.90;999.90;;;15.40;99.90;;;;;;5079174;28;20203;-84
2021/07/01 04:52:50;;;;;;;1999.90;999.90;;;15.40;99.90;;;;;;5080905;28;20432;-85
2021/07/01 04:55:15;;;;;;;1999.90;999.90;;;15.40;99.90;;;;;;5076285;28;20267;-85
2021/07/01 04:57:41;;;;;;;1999.90;999.90;;;15.50;99.90;;;;;;5055678;28;20571;-86
2021/07/01 05:00:07;;;;;;;1999.90;999.90;;;15.40;99.90;;;;;;5073814;28;20294;-86
2021/07/01 05:02:43;;;;;;;1999.90;999.90;;;15.40;99.90;;;;;;5072618;28;20169;-86
2021/07/01 05:05:40;;;;;;;1999.90;999.90;;;15.50;99.90;;;;;;5074450;28;20383;-86
2021/07/01 05:08:11;;;;;;;1999.90;999.90;;;15.50;99.90;;;;;;5073977;28;20430;-86
2021/07/01 05:10:47;;;;;;;1999.90;999.90;;;15.50;99.90;;;;;;5073833;28;20835;-85
2021/07/01 05:13:13;;;;;;;1999.90;999.90;;;15.40;99.90;;;;;;5072809;28;20450;-86
2021/07/01 05:15:39;;;;;;;1999.90;999.90;;;15.40;99.90;;;;;;5073618;28;20497;-86
2021/07/01 05:18:05;;;;;;;1999.90;999.90;;;15.40;99.90;;;;;;5056171;28;20169;-86
2021/07/01 05:20:31;;;;;;;1999.90;999.90;;;15.40;99.90;;;;;;5073996;28;20489;-86
2021/07/01 05:22:56;;;;;;;1999.90;999.90;;;15.50;99.90;;;;;;5072698;28;20172;-86
2021/07/01 05:25:22;;;;;;;1999.90;999.90;;;15.50;99.90;;;;;;5073750;28;20931;-86
2021/07/01 05:27:48;;;;;;;1999.90;999.90;;;15.60;99.90;;;;;;5072429;28;20193;-86
2021/07/01 05:30:14;;;;;;;1999.90;999.90;;;15.60;99.90;;;;;;5073599;28;20225;-86
2021/07/01 05:32:40;;;;;;;1999.90;999.90;;;15.60;99.90;;;;;;5073636;28;20500;-85
2021/07/01 05:35:07;;;;;;;1999.90;999.90;;;15.60;99.90;;;;;;5055028;28;20981;-85
2021/07/01 05:37:32;;;;;;;1999.90;999.90;;;15.60;99.90;;;;;;5073442;28;20244;-85
2021/07/01 05:39:58;;;;;;;1999.90;999.90;;;15.60;99.90;;;;;;5074275;28;20525;-85
2021/07/01 05:42:24;;;;;;;1999.90;999.90;;;15.60;99.90;;;;;;5056765;28;20168;-85
2021/07/01 05:44:50;;;;;;;1999.90;999.90;;;15.70;99.90;;;;;;5074533;28;20174;-85
2021/07/01 05:47:15;;;;;;;1999.90;999.90;;;15.70;99.90;;;;;;5073165;28;20438;-85
2021/07/01 05:49:41;;;;;;;1999.90;999.90;;;15.80;99.90;;;;;;5072447;28;20576;-84
2021/07/01 05:52:08;;;;;;;1999.90;999.90;;;15.70;99.90;;;;;;5074234;28;20169;-84
2021/07/01 05:54:53;;;;;;;1999.90;999.90;;;15.80;99.90;;;;;;5075011;28;20659;-85
2021/07/01 05:57:19;;;;;;;1999.90;999.90;;;15.80;99.90;;;;;;5074692;28;20855;-85
2021/07/01 05:59:45;;;;;;;1999.90;999.90;;;15.80;99.90;;;;;;5074815;28;20415;-85
2021/07/01 06:02:10;;;;;;;1999.90;999.90;;;15.90;99.90;;;;;;5074706;28;20637;-85
2021/07/01 06:04:37;;;;;;;1999.90;999.90;;;15.90;99.90;;;;;;5074457;28;20189;-85
2021/07/01 06:07:04;;;;;;;1999.90;999.90;;;15.70;99.90;;;;;;5076000;28;20215;-85
2021/07/01 06:09:30;;;;;;;1999.90;999.90;;;15.70;99.90;;;;;;5078855;28;20426;-85
2021/07/01 06:11:58;;;;;;;1999.90;999.90;;;15.80;99.90;;;;;;5061519;28;20987;-85
2021/07/01 06:14:25;;;;;;;1999.90;999.90;;;15.70;99.90;;;;;;5060697;28;20414;-85
2021/07/01 06:16:56;;;;;;;1999.90;999.90;;;15.60;99.90;;;;;;5078591;28;20504;-85
2021/07/01 06:19:22;;;;;;;1999.90;999.90;;;15.60;99.90;;;;;;5078718;28;20419;-85
2021/07/01 06:21:49;;;;;;;1999.90;999.90;;;15.90;99.90;;;;;;5078289;28;20539;-85
2021/07/01 06:24:16;;;;;;;1999.90;999.90;;;15.90;99.90;;;;;;5079128;28;20401;-85
2021/07/01 06:26:44;;;;;;;1999.90;999.90;;;15.90;99.90;;;;;;5079453;28;20398;-85
2021/07/01 06:29:11;;;;;;;1999.90;999.90;;;15.90;99.90;;;;;;5079730;28;20430;-85
2021/07/01 06:31:40;;;;;;;1999.90;999.90;;;15.90;99.90;;;;;;5078958;28;20914;-85
2021/07/01 06:34:07;;;;;;;1999.90;999.90;;;15.90;99.90;;;;;;5061754;28;20411;-84
2021/07/01 06:36:40;;;;;;;1999.90;999.90;;;15.90;99.90;;;;;;5077520;28;20489;-86
2021/07/01 06:39:06;;;;;;;1999.90;999.90;;;15.90;99.90;;;;;;5076825;28;20418;-86
2021/07/01 06:41:35;;;;;;;1999.90;999.90;;;16.00;99.90;;;;;;5076725;28;20408;-86
2021/07/01 06:44:01;;;;;;;1999.90;999.90;;;15.90;99.90;;;;;;5076895;28;20403;-86
2021/07/01 06:46:31;;;;;;;1999.90;999.90;;;15.90;99.90;;;;;;5058852;28;20461;-85
2021/07/01 06:48:57;;;;;;;1999.90;999.90;;;15.80;99.90;;;;;;5076488;28;20431;-85
2021/07/01 06:51:23;;;;;;;1999.90;999.90;;;15.80;99.90;;;;;;5076193;28;20404;-85
2021/07/01 06:53:52;;;;;;;1999.90;999.90;;;15.90;99.90;;;;;;5076837;28;20944;-85
2021/07/01 06:56:21;;;;;;;1999.90;999.90;;;15.90;99.90;;;;;;5076628;28;20583;-85
2021/07/01 06:58:47;;;;;;;1999.90;999.90;;;15.90;99.90;;;;;;5059150;28;20489;-84
2021/07/01 07:01:12;;;;;;;1999.90;999.90;;;15.90;99.90;;;;;;5077143;28;20400;-85
2021/07/01 07:03:38;;;;;;;1999.90;999.90;;;16.00;99.90;;;;;;5077945;28;20162;-85
2021/07/01 07:06:05;;;;;;;1999.90;999.90;;;15.90;99.90;;;;;;5077958;28;20210;-85
2021/07/01 07:08:31;;;;;;;1999.90;999.90;;;15.80;99.90;;;;;;5077515;28;20412;-85
2021/07/01 07:10:59;;;;;;;1999.90;999.90;;;15.70;99.90;;;;;;5075829;28;20423;-85
2021/07/01 07:13:25;;;;;;;1999.90;999.90;;;15.60;99.90;;;;;;5076962;28;20403;-85
2021/07/01 07:15:53;;;;;;;1999.90;999.90;;;15.50;99.90;;;;;;5077082;28;20454;-85
2021/07/01 07:18:30;;;;;;;1999.90;999.90;;;15.40;99.90;;;;;;5077107;28;20467;-86
2021/07/01 07:21:07;;;;;;;1999.90;999.90;;;15.50;99.90;;;;;;5076871;28;20467;-86
2021/07/01 07:23:36;;;;;;;1999.90;999.90;;;15.60;99.90;;;;;;5059075;28;20392;-85
2021/07/01 07:26:14;;;;;;;1999.90;999.90;;;15.70;99.90;;;;;;5075561;28;20423;-85
2021/07/01 07:28:42;;;;;;;1999.90;999.90;;;15.70;99.90;;;;;;5059289;28;20400;-85
2021/07/01 07:31:11;;;;;;;1999.90;999.90;;;15.80;99.90;;;;;;5076777;28;20462;-84
2021/07/01 07:33:38;;;;;;;1999.90;999.90;;;15.90;99.90;;;;;;5076698;28;20943;-85
2021/07/01 07:36:04;;;;;;;1999.90;999.90;;;15.90;99.90;;;;;;5076890;28;20444;-85
2021/07/01 07:38:30;;;;;;;1999.90;999.90;;;16.10;99.90;;;;;;5076674;28;20959;-85
2021/07/01 07:40:57;;;;;;;1999.90;999.90;;;16.20;99.90;;;;;;5075891;28;20423;-85
2021/07/01 07:43:25;;;;;;;1999.90;999.90;;;16.20;99.90;;;;;;5075791;28;20400;-85
2021/07/01 07:45:52;;;;;;;1999.90;999.90;;;16.20;99.90;;;;;;5074569;28;20412;-85
2021/07/01 07:48:19;;;;;;;1999.90;999.90;;;16.20;99.90;;;;;;5076003;28;20955;-85
2021/07/01 07:50:50;;;;;;;1999.90;999.90;;;16.40;99.90;;;;;;5075579;28;20473;-85
2021/07/01 07:53:31;;;;;;;1999.90;999.90;;;16.50;99.90;;;;;;5075630;28;20476;-85
2021/07/01 07:56:11;;;;;;;1999.90;999.90;;;16.70;99.90;;;;;;5075458;28;20525;-85
2021/07/01 07:58:41;;;;;;;1999.90;999.90;;;16.70;99.90;;;;;;5074177;28;20400;-85
2021/07/01 08:01:09;;;;;;;1999.90;999.90;;;16.80;99.90;;;;;;5074842;28;20487;-85
2021/07/01 08:03:38;;;;;;;1999.90;999.90;;;16.80;99.90;;;;;;5057706;28;20487;-85
2021/07/01 08:06:08;;;;;;;1999.90;999.90;;;16.90;99.90;;;;;;5075449;28;20399;-85
2021/07/01 08:08:37;;;;;;;1999.90;999.90;;;17.00;99.90;;;;;;5075519;28;20989;-85
2021/07/01 08:11:05;;;;;;;1999.90;999.90;;;17.00;99.90;;;;;;5075176;28;20481;-86
2021/07/01 08:13:32;;;;;;;1999.90;999.90;;;17.10;99.90;;;;;;5075318;28;20897;-85
2021/07/01 08:30:48;;;;;;;1999.90;999.90;;;17.30;99.90;;;;;;4895533;28;20528;-87
2021/07/01 08:34:07;;;;;;;1999.90;999.90;;;17.10;99.90;;;;;;4886847;29;20477;-87
2021/07/01 08:41:04;;;;;;;;;;;;;;;;;;;;;
2021/07/01 08:44:44;;;;;;;;;;;;;;;;;;;;;
2021/07/01 08:50:18;;;;;;;1999.90;999.90;;;16.90;99.90;;;;;;5014334;28;20968;-86
2021/07/01 08:53:31;;;;;;;1999.90;999.90;;;16.90;99.90;;;;;;5036388;28;20408;-86
2021/07/01 09:10:58;;;;;;;1999.90;999.90;;;17.10;99.90;;;;;;4983759;28;21011;-87
2021/07/01 09:20:48;;;;;;;1999.90;999.90;;;17.30;99.90;;;;;;5143476;22;20546;-86
2021/07/01 09:23:48;;;;;;;1999.90;999.90;;;17.40;99.90;;;;;;5049441;28;20854;-87
2021/07/01 09:26:40;;;;;;;1999.90;999.90;;;17.30;99.90;;;;;;5057262;28;20457;-87
2021/07/01 09:30:29;;;;;;;;;;;;;;;;;;;;;
2021/07/01 09:33:13;;;;;;;1999.90;999.90;;;17.20;99.90;;;;;;5009152;28;20431;-85
2021/07/01 09:39:48;;;;;;;1999.90;999.90;;;17.10;99.90;;;;;;5047570;22;20519;-85
2021/07/01 09:42:53;;;;;;;1999.90;999.90;;;17.10;99.90;;;;;;5091767;28;20493;-85
2021/07/01 09:46:37;;;;;;;1999.90;999.90;;;17.00;99.90;;;;;;5094255;28;20406;-85
2021/07/01 09:49:10;;;;;;;1999.90;999.90;;;17.00;99.90;;;;;;5007583;28;20420;-85
2021/07/01 09:55:54;;;;;;;;;;;;;;;;;;;;;
2021/07/01 10:01:42;;;;;;;;;;;;;;;;;;;;;
2021/07/01 10:04:19;;;;;;;1999.90;999.90;;;16.70;99.90;;;;;;5098146;28;20502;-87
2021/07/01 10:14:16;;;;;;;1999.90;999.90;;;16.60;99.90;;;;;;5007153;28;20478;-87
2021/07/01 10:16:54;;;;;;;1999.90;999.90;;;16.60;99.90;;;;;;5016895;28;20452;-86
2021/07/01 10:19:34;;;;;;;1999.90;999.90;;;16.70;99.90;;;;;;5092972;28;20430;-85
2021/07/01 10:22:14;;;;;;;1999.90;999.90;;;16.90;99.90;;;;;;5076585;28;20424;-85
2021/07/01 10:25:03;;;;;;;1999.90;999.90;;;16.90;99.90;;;;;;5075658;28;20761;-85
2021/07/01 10:28:09;;;;;;;1999.90;999.90;;;16.80;99.90;;;;;;5075754;28;20415;-85
2021/07/01 10:30:45;;;;;;;1999.90;999.90;;;16.70;99.90;;;;;;5031766;28;20541;-85
2021/07/01 10:33:40;;;;;;;1999.90;999.90;;;16.60;99.90;;;;;;5068102;28;20436;-85
2021/07/01 10:36:34;;;;;;;1999.90;999.90;;;16.60;99.90;;;;;;5075623;28;20444;-86
2021/07/01 10:39:39;;;;;;;1999.90;999.90;;;16.50;99.90;;;;;;5094878;28;20415;-84
2021/07/01 10:42:14;;;;;;;1999.90;999.90;;;16.50;99.90;;;;;;5094832;28;20447;-86
2021/07/01 10:45:35;;;;;;;1999.90;999.90;;;16.60;99.90;;;;;;5077161;28;20400;-86
2021/07/01 10:49:01;;;;;;;1999.90;999.90;;;16.70;99.90;;;;;;5093853;28;20458;-85
2021/07/01 10:52:20;;;;;;;;;;;;;;;;;;;;;
2021/07/01 10:55:17;;;;;;;1999.90;999.90;;;16.90;99.90;;;;;;5095268;28;20390;-85
2021/07/01 10:58:21;;;;;;;1999.90;999.90;;;17.10;99.90;;;;;;5097094;28;20412;-84
2021/07/01 11:00:59;;;;;;;1999.90;999.90;;;17.20;99.90;;;;;;5097376;28;20753;-85
2021/07/01 11:03:58;;;;;;;1999.90;999.90;;;17.20;99.90;;;;;;5095533;28;20841;-85
2021/07/01 11:07:06;;;;;;;1999.90;999.90;;;17.30;99.90;;;;;;5096633;28;20416;-85
2021/07/01 11:09:56;;;;;;;;;;;;;;;;;;;;;
2021/07/01 11:19:45;;;;;;;1999.90;999.90;;;17.60;99.90;;;;;;5073190;28;20449;-85
2021/07/01 11:22:27;;;;;;;;;;;;;;;;;;;;;
2021/07/01 11:25:30;;;;;;;1999.90;999.90;;;17.70;99.90;;;;;;5097107;28;20877;-84
2021/07/01 11:28:29;;;;;;;1999.90;999.90;;;17.60;99.90;;;;;;5096834;28;20734;-84
2021/07/01 11:31:14;;;;;;;1999.90;999.90;;;17.50;99.90;;;;;;5022246;28;20423;-84
2021/07/01 11:34:04;;;;;;;1999.90;999.90;;;17.60;99.90;;;;;;5035180;28;20401;-84
2021/07/01 11:36:32;;;;;;;1999.90;999.90;;;17.40;99.90;;;;;;5097701;28;20456;-86
2021/07/01 11:39:16;;;;;;;1999.90;999.90;;;17.40;99.90;;;;;;5101882;28;20425;-87
2021/07/01 11:41:46;;;;;;;1999.90;999.90;;;17.20;99.90;;;;;;5102030;28;20400;-86
2021/07/01 11:44:24;;;;;;;1999.90;999.90;;;17.20;99.90;;;;;;5103293;28;20845;-86
2021/07/01 11:47:26;;;;;;;1999.90;999.90;;;17.20;99.90;;;;;;5083356;28;20435;-87
2021/07/01 11:50:14;;;;;;;1999.90;999.90;;;17.10;99.90;;;;;;5082531;28;20481;-87
2021/07/01 11:52:45;;;;;;;1999.90;999.90;;;17.10;99.90;;;;;;5090913;28;20412;-87
2021/07/01 11:59:28;;;;;;;1999.90;999.90;;;17.00;99.90;;;;;;5003382;28;20460;-86
2021/07/01 12:02:30;;;;;;;1999.90;999.90;;;16.90;99.90;;;;;;5028989;28;20473;-87
2021/07/01 12:05:37;;;;;;;1999.90;999.90;;;17.00;99.90;;;;;;5038249;28;20384;-87
2021/07/01 12:08:09;;;;;;;1999.90;999.90;;;17.00;99.90;;;;;;5013942;28;20430;-87
2021/07/01 12:10:53;;;;;;;1999.90;999.90;;;17.00;99.90;;;;;;5021332;28;20457;-85
2021/07/01 12:21:30;;;;;;;1999.90;999.90;;;17.20;99.90;;;;;;4963851;28;20879;-84
2021/07/01 12:30:54;;;;;;;1999.90;999.90;;;17.40;99.90;;;;;;5116325;22;20496;-85
2021/07/01 12:37:41;;;;;;;1999.90;999.90;;;17.60;99.90;;;;;;5003076;28;20478;-85
2021/07/01 12:42:51;;;;;;;1999.90;999.90;;;17.60;99.90;;;;;;5169954;22;20487;-85
2021/07/01 12:45:43;;;;;;;1999.90;999.90;;;17.60;99.90;;;;;;5095092;28;20441;-85
2021/07/01 12:55:36;;;;;;;;;;;;;;;;;;;;;
2021/07/01 12:58:17;;;;;;;;;;;;;;;;;;;;;
2021/07/01 13:06:02;;;;;;;1999.90;999.90;;;17.60;99.90;;;;;;4897641;22;20462;-85
2021/07/01 13:08:53;;;;;;;1999.90;999.90;;;17.60;99.90;;;;;;5057222;28;20416;-86
2021/07/01 13:15:36;;;;;;;1999.90;999.90;;;17.40;99.90;;;;;;4917083;29;20453;-86
2021/07/01 13:18:57;;;;;;;1999.90;999.90;;;17.30;99.90;;;;;;4954465;28;20510;-86
2021/07/01 13:22:33;;;;;;;;;;;;;;;;;;;;;
2021/07/01 13:42:31;;;;;;;;;;;;;;;;;;;;;
2021/07/01 14:00:03;;;;;;;;;;;;;;;;;;;;;
2021/07/01 14:06:45;;;;;;;1999.90;999.90;;;17.50;99.90;;;;;;4954090;29;20449;-85
2021/07/01 14:16:30;;;;;;;1999.90;999.90;;;17.50;99.90;;;;;;4968347;22;20507;-85
2021/07/01 14:18:58;;;;;;;1999.90;999.90;;;17.50;99.90;;;;;;5073294;28;20435;-85
2021/07/01 14:21:39;;;;;;;1999.90;999.90;;;17.50;99.90;;;;;;5073403;28;20904;-86
2021/07/01 14:24:17;;;;;;;1999.90;999.90;;;17.50;99.90;;;;;;5073277;28;20803;-86
2021/07/01 14:26:50;;;;;;;1999.90;999.90;;;17.60;99.90;;;;;;5073326;28;20433;-86
2021/07/01 14:29:18;;;;;;;1999.90;999.90;;;17.60;99.90;;;;;;5074278;28;20433;-85
2021/07/01 14:31:44;;;;;;;1999.90;999.90;;;17.60;99.90;;;;;;5077058;28;20409;-85
2021/07/01 14:34:10;;;;;;;1999.90;999.90;;;17.60;99.90;;;;;;5077233;28;20394;-85
2021/07/01 14:36:54;;;;;;;1999.90;999.90;;;17.50;99.90;;;;;;5059548;28;20985;-85
2021/07/01 14:39:24;;;;;;;1999.90;999.90;;;17.30;99.90;;;;;;5079316;28;20433;-85
2021/07/01 14:42:04;;;;;;;1999.90;999.90;;;17.20;99.90;;;;;;5078290;28;20401;-86
2021/07/01 14:44:30;;;;;;;1999.90;999.90;;;17.20;99.90;;;;;;5078603;28;20402;-85
2021/07/01 14:46:57;;;;;;;1999.90;999.90;;;17.20;99.90;;;;;;5077417;28;20493;-85
2021/07/01 14:49:34;;;;;;;1999.90;999.90;;;17.20;99.90;;;;;;5059595;28;20475;-85
2021/07/01 14:52:04;;;;;;;1999.90;999.90;;;17.10;99.90;;;;;;5059838;28;20423;-86
2021/07/01 14:54:41;;;;;;;1999.90;999.90;;;17.10;99.90;;;;;;5077345;28;20796;-85
2021/07/01 14:57:10;;;;;;;1999.90;999.90;;;17.00;99.90;;;;;;5059532;28;20446;-86
2021/07/01 14:59:48;;;;;;;1999.90;999.90;;;17.00;99.90;;;;;;5075450;28;20451;-85
2021/07/01 15:02:15;;;;;;;1999.90;999.90;;;16.90;99.90;;;;;;5074857;28;20769;-85
2021/07/01 15:04:42;;;;;;;1999.90;999.90;;;16.90;99.90;;;;;;5059464;28;20416;-85
2021/07/01 15:07:17;;;;;;;1999.90;999.90;;;16.90;99.90;;;;;;5076521;28;20411;-85
2021/07/01 15:09:54;;;;;;;1999.90;999.90;;;16.90;99.90;;;;;;5059447;28;20432;-85
2021/07/01 15:12:26;;;;;;;1999.90;999.90;;;17.00;99.90;;;;;;5058494;28;20498;-85
2021/07/01 15:14:56;;;;;;;1999.90;999.90;;;17.00;99.90;;;;;;5076159;28;20488;-85
2021/07/01 15:17:33;;;;;;;1999.90;999.90;;;17.00;99.90;;;;;;5076281;28;20512;-85
2021/07/01 15:20:00;;;;;;;1999.90;999.90;;;17.00;99.90;;;;;;5059116;28;20440;-85
2021/07/01 15:22:27;;;;;;;1999.90;999.90;;;16.90;99.90;;;;;;5076465;28;20527;-85
2021/07/01 15:24:56;;;;;;;1999.90;999.90;;;16.90;99.90;;;;;;5076377;28;20765;-85
2021/07/01 15:27:23;;;;;;;1999.90;999.90;;;16.90;99.90;;;;;;5076140;28;20408;-85
2021/07/01 15:29:50;;;;;;;1999.90;999.90;;;16.90;99.90;;;;;;5076051;28;20417;-85
2021/07/01 15:32:18;;;;;;;1999.90;999.90;;;16.90;99.90;;;;;;5076123;28;20409;-85
2021/07/01 15:34:44;;;;;;;1999.90;999.90;;;16.90;99.90;;;;;;5076382;28;20414;-86
2021/07/01 15:37:10;;;;;;;1999.90;999.90;;;16.90;99.90;;;;;;5074996;28;20452;-85
2021/07/01 15:39:36;;;;;;;1999.90;999.90;;;16.90;99.90;;;;;;5074576;28;20940;-85
2021/07/01 15:42:02;;;;;;;1999.90;999.90;;;17.00;99.90;;;;;;5075632;28;20164;-85
2021/07/01 15:44:28;;;;;;;1999.90;999.90;;;17.10;99.90;;;;;;5075911;28;20168;-85